createdAt,value
2019-02-02T00:00:01.867Z,74.32
2019-02-02T00:01:01.859Z,74.94
2019-02-02T00:02:01.883Z,74.94
2019-02-02T00:03:01.833Z,74.84
2019-02-02T00:04:01.818Z,75.15
2019-02-02T00:05:01.807Z,75.04
2019-02-02T00:06:01.799Z,75.04
2019-02-02T00:07:01.787Z,75.46
2019-02-02T00:08:01.775Z,75.25
2019-02-02T00:09:01.869Z,76.50
2019-02-02T00:10:01.783Z,76.19
2019-02-02T00:11:01.742Z,76.39
2019-02-02T00:12:01.731Z,76.61
2019-02-02T00:13:01.720Z,76.19
2019-02-02T00:14:01.710Z,76.50
2019-02-02T00:15:01.700Z,76.61
2019-02-02T00:16:01.687Z,76.50
2019-02-02T00:17:01.679Z,76.50
2019-02-02T00:18:01.666Z,76.50
2019-02-02T00:19:01.655Z,76.50
2019-02-02T00:20:01.649Z,76.50
2019-02-02T00:21:01.637Z,75.87
2019-02-02T00:22:01.623Z,76.29
2019-02-02T00:23:01.610Z,76.61
2019-02-02T00:24:01.598Z,76.64
2019-02-02T00:25:01.589Z,76.53
2019-02-02T00:26:01.582Z,76.39
2019-02-02T00:27:01.571Z,76.50
2019-02-02T00:28:01.562Z,76.81
2019-02-02T00:29:01.565Z,77.23
2019-02-02T00:30:01.534Z,77.02
2019-02-02T00:31:01.521Z,77.13
2019-02-02T00:32:01.509Z,76.92
2019-02-02T00:33:01.498Z,76.61
2019-02-02T00:34:01.494Z,76.71
2019-02-02T00:35:01.481Z,76.61
2019-02-02T00:36:01.469Z,77.13
2019-02-02T00:37:01.454Z,76.92
2019-02-02T00:38:01.444Z,76.81
2019-02-02T00:39:01.434Z,76.71
2019-02-02T00:40:01.424Z,77.13
2019-02-02T00:41:01.410Z,77.54
2019-02-02T00:42:01.404Z,76.92
2019-02-02T00:43:01.511Z,76.50
2019-02-02T00:44:01.379Z,76.95
2019-02-02T00:45:25.847Z,77.05
2019-02-02T00:46:25.854Z,76.84
2019-02-02T00:47:25.826Z,76.95
2019-02-02T00:48:25.816Z,77.27
2019-02-02T00:49:25.802Z,77.58
2019-02-02T00:50:25.792Z,77.47
2019-02-02T00:51:25.780Z,78.20
2019-02-02T00:52:25.771Z,78.10
2019-02-02T00:53:25.762Z,77.68
2019-02-02T00:54:25.750Z,77.58
2019-02-02T00:55:25.735Z,78.10
2019-02-02T00:56:25.723Z,77.78
2019-02-02T00:57:25.721Z,77.99
2019-02-02T00:58:25.712Z,78.41
2019-02-02T00:59:25.691Z,77.78
2019-02-02T01:00:25.680Z,78.41
2019-02-02T01:01:25.671Z,78.41
2019-02-02T01:02:25.656Z,78.10
2019-02-02T01:03:25.650Z,78.10
2019-02-02T01:04:25.638Z,78.10
2019-02-02T01:05:25.622Z,78.30
2019-02-02T01:06:25.614Z,78.10
2019-02-02T01:07:25.602Z,78.41
2019-02-02T01:08:25.592Z,78.41
2019-02-02T01:09:25.585Z,79.44
2019-02-02T01:10:25.572Z,78.82
2019-02-02T01:11:25.555Z,79.13
2019-02-02T01:12:25.544Z,79.03
2019-02-02T01:13:25.533Z,79.13
2019-02-02T01:14:25.532Z,79.03
2019-02-02T01:15:25.512Z,79.13
2019-02-02T01:16:25.499Z,78.82
2019-02-02T01:17:25.489Z,79.76
2019-02-02T01:18:25.482Z,79.65
2019-02-02T01:19:25.468Z,79.34
2019-02-02T01:20:25.455Z,79.44
2019-02-02T01:21:25.443Z,79.55
2019-02-02T01:22:25.436Z,79.44
2019-02-02T01:23:25.424Z,79.24
2019-02-02T01:24:25.413Z,80.07
2019-02-02T01:25:25.402Z,79.55
2019-02-02T01:26:25.420Z,79.76
2019-02-02T01:27:25.377Z,79.97
2019-02-02T01:28:25.366Z,80.49
2019-02-02T01:29:25.357Z,79.87
2019-02-02T01:30:25.343Z,79.87
2019-02-02T01:31:25.339Z,79.76
2019-02-02T01:32:25.321Z,79.65
2019-02-02T01:33:25.310Z,80.18
2019-02-02T01:34:25.301Z,79.97
2019-02-02T01:35:25.289Z,79.87
2019-02-02T01:36:25.278Z,80.01
2019-02-02T01:37:25.268Z,80.38
2019-02-02T01:38:25.254Z,81.11
2019-02-02T01:39:25.246Z,80.38
2019-02-02T01:40:25.242Z,80.38
2019-02-02T01:41:25.220Z,80.18
2019-02-02T01:42:25.212Z,80.59
2019-02-02T01:43:25.201Z,80.07
2019-02-02T01:44:25.196Z,80.49
2019-02-02T01:45:25.177Z,80.49
2019-02-02T01:46:25.165Z,79.97
2019-02-02T01:47:25.156Z,80.38
2019-02-02T01:48:25.143Z,80.07
2019-02-02T01:49:25.136Z,81.01
2019-02-02T01:50:25.127Z,80.07
2019-02-02T01:51:25.112Z,80.70
2019-02-02T01:52:25.097Z,80.87
2019-02-02T01:53:25.086Z,80.90
2019-02-02T01:54:25.081Z,79.65
2019-02-02T01:55:25.072Z,80.90
2019-02-02T01:56:25.061Z,80.80
2019-02-02T01:57:25.042Z,80.38
2019-02-02T01:58:25.031Z,80.76
2019-02-02T01:59:25.023Z,80.66
2019-02-02T02:00:25.008Z,80.49
2019-02-02T02:01:25.000Z,80.38
2019-02-02T02:02:24.986Z,80.38
2019-02-02T02:03:24.976Z,80.28
2019-02-02T02:04:24.965Z,80.94
2019-02-02T02:05:24.952Z,80.70
2019-02-02T02:06:24.948Z,81.56
2019-02-02T02:07:24.934Z,81.67
2019-02-02T02:08:24.926Z,82.36
2019-02-02T02:09:24.913Z,82.36
2019-02-02T02:10:24.899Z,82.40
2019-02-02T02:11:24.892Z,81.98
2019-02-02T02:12:24.876Z,82.08
2019-02-02T02:13:24.864Z,82.25
2019-02-02T02:14:24.854Z,81.77
2019-02-02T02:15:24.844Z,82.08
2019-02-02T02:16:24.835Z,82.08
2019-02-02T02:17:24.824Z,82.04
2019-02-02T02:18:24.809Z,82.04
2019-02-02T02:19:24.800Z,82.08
2019-02-02T02:20:24.789Z,82.04
2019-02-02T02:21:24.778Z,82.25
2019-02-02T02:22:24.764Z,82.15
2019-02-02T02:23:24.754Z,82.15
2019-02-02T02:24:24.742Z,82.15
2019-02-02T02:25:24.730Z,81.73
2019-02-02T02:26:24.720Z,82.15
2019-02-02T02:27:24.710Z,82.46
2019-02-02T02:28:28.093Z,81.73
2019-02-02T02:29:24.689Z,82.15
2019-02-02T02:30:24.676Z,82.15
2019-02-02T02:31:24.672Z,82.36
2019-02-02T02:32:24.654Z,82.15
2019-02-02T02:33:24.641Z,82.04
2019-02-02T02:34:24.638Z,82.40
2019-02-02T02:35:24.624Z,82.04
2019-02-02T02:36:24.612Z,81.84
2019-02-02T02:37:24.601Z,82.04
2019-02-02T02:38:24.586Z,82.61
2019-02-02T02:39:24.583Z,82.81
2019-02-02T02:40:24.568Z,83.12
2019-02-02T02:41:24.554Z,83.02
2019-02-02T02:42:24.539Z,83.44
2019-02-02T02:43:24.530Z,83.33
2019-02-02T02:44:24.528Z,83.23
2019-02-02T02:45:24.508Z,83.23
2019-02-02T02:46:24.504Z,83.44
2019-02-02T02:47:24.487Z,83.02
2019-02-02T02:48:24.472Z,83.44
2019-02-02T02:49:24.467Z,83.12
2019-02-02T02:50:24.463Z,83.54
2019-02-02T02:51:24.438Z,83.12
2019-02-02T02:52:24.427Z,83.09
2019-02-02T02:53:24.419Z,83.19
2019-02-02T02:54:24.415Z,82.61
2019-02-02T02:55:24.399Z,82.81
2019-02-02T02:56:24.392Z,82.92
2019-02-02T02:57:24.371Z,82.50
2019-02-02T02:58:24.361Z,82.36
2019-02-02T02:59:24.377Z,83.02
2019-02-02T03:00:24.342Z,83.02
2019-02-02T03:01:24.327Z,83.02
2019-02-02T03:02:24.315Z,83.12
2019-02-02T03:03:24.323Z,83.12
2019-02-02T03:04:24.294Z,82.98
2019-02-02T03:05:24.289Z,83.44
2019-02-02T03:06:24.271Z,82.98
2019-02-02T03:07:24.260Z,82.98
2019-02-02T03:08:24.253Z,83.02
2019-02-02T03:09:24.246Z,83.12
2019-02-02T03:10:24.226Z,82.98
2019-02-02T03:11:24.224Z,82.71
2019-02-02T03:12:24.203Z,83.12
2019-02-02T03:13:24.193Z,83.33
2019-02-02T03:14:24.188Z,83.33
2019-02-02T03:15:24.173Z,83.50
2019-02-02T03:16:24.158Z,83.33
2019-02-02T03:17:24.168Z,83.33
2019-02-02T03:18:24.136Z,83.33
2019-02-02T03:19:24.125Z,82.81
2019-02-02T03:20:24.125Z,82.81
2019-02-02T03:21:24.102Z,83.54
2019-02-02T03:22:24.162Z,83.33
2019-02-02T03:23:24.081Z,83.33
2019-02-02T03:24:24.075Z,83.75
2019-02-02T03:25:24.062Z,84.38
2019-02-02T03:26:24.044Z,83.95
2019-02-02T03:27:24.038Z,84.06
2019-02-02T03:28:24.022Z,84.27
2019-02-02T03:29:24.012Z,83.92
2019-02-02T03:30:24.012Z,83.44
2019-02-02T03:31:23.991Z,83.81
2019-02-02T03:32:23.978Z,83.30
2019-02-02T03:33:23.978Z,83.09
2019-02-02T03:34:23.961Z,83.12
2019-02-02T03:35:23.957Z,83.12
2019-02-02T03:36:23.933Z,83.33
2019-02-02T03:37:23.921Z,83.23
2019-02-02T03:38:23.910Z,83.33
2019-02-02T03:39:23.901Z,83.33
2019-02-02T03:40:23.893Z,83.95
2019-02-02T03:41:23.875Z,83.95
2019-02-02T03:42:23.870Z,83.85
2019-02-02T03:43:23.860Z,83.33
2019-02-02T03:44:23.845Z,83.68
2019-02-02T03:45:23.930Z,83.85
2019-02-02T03:46:23.823Z,84.27
2019-02-02T03:47:23.808Z,83.27
2019-02-02T03:48:23.798Z,83.33
2019-02-02T03:49:23.789Z,83.58
2019-02-02T03:50:23.785Z,83.44
2019-02-02T03:51:23.767Z,83.89
2019-02-02T03:52:23.758Z,83.95
2019-02-02T03:53:23.752Z,84.16
2019-02-02T03:54:23.734Z,84.27
2019-02-02T03:55:23.722Z,84.16
2019-02-02T03:56:23.712Z,83.95
2019-02-02T03:57:23.697Z,83.85
2019-02-02T03:58:23.687Z,83.64
2019-02-02T03:59:23.673Z,83.54
2019-02-02T04:00:23.664Z,83.44
2019-02-02T04:01:23.654Z,83.23
2019-02-02T04:02:23.647Z,83.54
2019-02-02T04:03:23.633Z,83.47
2019-02-02T04:04:23.617Z,83.54
2019-02-02T04:05:23.610Z,83.37
2019-02-02T04:06:23.595Z,83.33
2019-02-02T04:07:23.585Z,82.81
2019-02-02T04:08:23.573Z,83.33
2019-02-02T04:09:23.562Z,83.12
2019-02-02T04:10:23.566Z,83.23
2019-02-02T04:11:23.575Z,83.23
2019-02-02T04:12:23.533Z,83.44
2019-02-02T04:13:23.534Z,83.30
2019-02-02T04:14:23.543Z,83.54
2019-02-02T04:15:23.550Z,83.44
2019-02-02T04:16:23.483Z,83.19
2019-02-02T04:17:23.484Z,83.12
2019-02-02T04:18:23.485Z,83.23
2019-02-02T04:19:23.487Z,83.23
2019-02-02T04:20:23.490Z,83.12
2019-02-02T04:21:23.430Z,83.23
2019-02-02T04:22:23.417Z,83.06
2019-02-02T04:23:23.411Z,83.54
2019-02-02T04:24:23.400Z,83.12
2019-02-02T04:25:23.384Z,82.81
2019-02-02T04:26:23.370Z,82.92
2019-02-02T04:27:23.367Z,82.81
2019-02-02T04:28:23.355Z,82.78
2019-02-02T04:29:23.335Z,83.23
2019-02-02T04:30:23.331Z,83.44
2019-02-02T04:31:23.313Z,83.02
2019-02-02T04:32:23.301Z,83.33
2019-02-02T04:33:23.291Z,83.02
2019-02-02T04:34:23.279Z,82.71
2019-02-02T04:35:23.269Z,83.12
2019-02-02T04:36:23.257Z,83.23
2019-02-02T04:37:23.245Z,83.02
2019-02-02T04:38:23.240Z,83.12
2019-02-02T04:39:23.226Z,82.81
2019-02-02T04:40:23.210Z,83.23
2019-02-02T04:41:23.203Z,83.02
2019-02-02T04:42:23.202Z,83.12
2019-02-02T04:43:23.179Z,83.33
2019-02-02T04:44:23.166Z,83.12
2019-02-02T04:45:23.157Z,83.33
2019-02-02T04:46:23.144Z,83.33
2019-02-02T04:47:23.138Z,83.44
2019-02-02T04:48:23.120Z,83.58
2019-02-02T04:49:23.108Z,83.79
2019-02-02T04:50:23.098Z,83.37
2019-02-02T04:51:23.093Z,83.54
2019-02-02T04:52:23.076Z,83.23
2019-02-02T04:53:23.064Z,83.06
2019-02-02T04:54:23.056Z,83.33
2019-02-02T04:55:23.042Z,82.81
2019-02-02T04:56:23.034Z,83.19
2019-02-02T04:57:23.020Z,83.23
2019-02-02T04:58:23.016Z,83.33
2019-02-02T04:59:29.350Z,83.23
2019-02-02T05:00:47.476Z,83.33
2019-02-02T05:01:47.464Z,83.12
2019-02-02T05:02:47.450Z,83.44
2019-02-02T05:03:47.436Z,83.33
2019-02-02T05:04:47.422Z,83.33
2019-02-02T05:05:47.412Z,83.27
2019-02-02T05:06:47.404Z,83.27
2019-02-02T05:07:47.394Z,83.27
2019-02-02T05:08:47.378Z,83.06
2019-02-02T05:09:47.366Z,83.54
2019-02-02T05:10:47.356Z,83.68
2019-02-02T05:11:47.346Z,83.58
2019-02-02T05:12:47.332Z,83.89
2019-02-02T05:13:47.328Z,84.52
2019-02-02T05:14:47.316Z,84.41
2019-02-02T05:15:47.305Z,84.31
2019-02-02T05:16:47.286Z,84.52
2019-02-02T05:17:47.284Z,84.31
2019-02-02T05:18:47.271Z,84.52
2019-02-02T05:19:47.253Z,84.52
2019-02-02T05:20:47.242Z,84.00
2019-02-02T05:21:47.230Z,84.00
2019-02-02T05:22:47.218Z,84.10
2019-02-02T05:23:47.212Z,83.89
2019-02-02T05:24:47.198Z,84.03
2019-02-02T05:25:47.192Z,83.89
2019-02-02T05:26:47.178Z,83.79
2019-02-02T05:27:47.295Z,84.41
2019-02-02T05:28:47.154Z,83.79
2019-02-02T05:29:47.139Z,83.58
2019-02-02T05:30:47.131Z,83.12
2019-02-02T05:31:47.120Z,83.68
2019-02-02T05:32:47.105Z,83.79
2019-02-02T05:33:47.095Z,84.00
2019-02-02T05:34:47.083Z,84.00
2019-02-02T05:35:47.075Z,84.21
2019-02-02T05:36:47.061Z,84.41
2019-02-02T05:37:47.053Z,83.89
2019-02-02T05:38:47.039Z,83.79
2019-02-02T05:39:47.027Z,83.79
2019-02-02T05:40:47.017Z,84.00
2019-02-02T05:41:47.005Z,83.93
2019-02-02T05:42:46.992Z,84.10
2019-02-02T05:43:46.983Z,84.00
2019-02-02T05:44:46.969Z,84.21
2019-02-02T05:45:46.961Z,84.21
2019-02-02T05:46:46.956Z,84.31
2019-02-02T05:47:46.935Z,84.00
2019-02-02T05:48:46.931Z,84.52
2019-02-02T05:49:49.602Z,84.31
2019-02-02T05:50:46.902Z,84.31
2019-02-02T05:51:46.891Z,84.00
2019-02-02T05:52:46.884Z,84.00
2019-02-02T05:53:46.869Z,84.21
2019-02-02T05:54:46.857Z,84.31
2019-02-02T05:55:46.852Z,83.79
2019-02-02T05:56:46.835Z,83.89
2019-02-02T05:57:46.823Z,83.37
2019-02-02T05:58:46.819Z,83.89
2019-02-02T05:59:52.864Z,83.33
2019-02-02T06:01:11.274Z,83.33
2019-02-02T06:02:11.268Z,83.12
2019-02-02T06:03:11.259Z,83.12
2019-02-02T06:04:11.242Z,83.44
2019-02-02T06:05:11.235Z,83.33
2019-02-02T06:06:11.223Z,83.54
2019-02-02T06:07:11.209Z,83.12
2019-02-02T06:08:11.202Z,83.33
2019-02-02T06:09:11.186Z,83.33
2019-02-02T06:10:11.173Z,83.33
2019-02-02T06:11:11.163Z,83.33
2019-02-02T06:12:11.154Z,83.23
2019-02-02T06:13:11.143Z,83.06
2019-02-02T06:14:11.127Z,83.27
2019-02-02T06:15:11.121Z,83.37
2019-02-02T06:16:11.112Z,83.64
2019-02-02T06:17:11.093Z,83.33
2019-02-02T06:18:11.084Z,83.23
2019-02-02T06:19:11.071Z,83.12
2019-02-02T06:20:11.061Z,83.23
2019-02-02T06:21:11.055Z,83.33
2019-02-02T06:22:11.040Z,83.33
2019-02-02T06:23:11.026Z,83.23
2019-02-02T06:24:11.014Z,82.88
2019-02-02T06:25:11.008Z,83.44
2019-02-02T06:26:10.998Z,83.40
2019-02-02T06:27:10.987Z,83.09
2019-02-02T06:28:10.971Z,82.57
2019-02-02T06:29:10.957Z,82.67
2019-02-02T06:30:10.949Z,82.57
2019-02-02T06:31:10.937Z,81.94
2019-02-02T06:32:12.168Z,82.25
2019-02-02T06:33:10.912Z,82.15
2019-02-02T06:34:10.909Z,82.04
2019-02-02T06:35:10.895Z,81.94
2019-02-02T06:36:10.879Z,82.15
2019-02-02T06:37:10.867Z,82.15
2019-02-02T06:38:10.857Z,82.04
2019-02-02T06:39:10.845Z,82.11
2019-02-02T06:40:10.835Z,81.94
2019-02-02T06:41:10.822Z,82.04
2019-02-02T06:42:10.828Z,82.25
2019-02-02T06:43:10.801Z,81.73
2019-02-02T06:44:10.874Z,81.73
2019-02-02T06:45:10.777Z,82.04
2019-02-02T06:46:10.771Z,82.04
2019-02-02T06:47:10.754Z,82.25
2019-02-02T06:48:10.876Z,82.04
2019-02-02T06:49:10.732Z,81.84
2019-02-02T06:50:10.733Z,82.67
2019-02-02T06:51:10.711Z,82.46
2019-02-02T06:52:10.702Z,82.67
2019-02-02T06:53:10.696Z,82.78
2019-02-02T06:54:10.675Z,82.57
2019-02-02T06:55:10.665Z,82.57
2019-02-02T06:56:10.658Z,82.29
2019-02-02T06:57:10.645Z,82.88
2019-02-02T06:58:10.633Z,82.36
2019-02-02T06:59:10.621Z,83.40
2019-02-02T07:00:16.211Z,83.30
2019-02-02T07:01:10.599Z,83.50
2019-02-02T07:02:10.586Z,83.30
2019-02-02T07:03:10.576Z,83.50
2019-02-02T07:04:10.563Z,83.09
2019-02-02T07:05:10.554Z,83.09
2019-02-02T07:06:10.541Z,83.09
2019-02-02T07:07:10.529Z,82.98
2019-02-02T07:08:10.517Z,83.09
2019-02-02T07:09:10.507Z,82.98
2019-02-02T07:10:10.497Z,83.44
2019-02-02T07:11:10.485Z,83.30
2019-02-02T07:12:10.475Z,83.19
2019-02-02T07:13:10.462Z,83.33
2019-02-02T07:14:10.451Z,83.23
2019-02-02T07:15:10.440Z,82.81
2019-02-02T07:16:10.432Z,83.12
2019-02-02T07:17:10.425Z,83.54
2019-02-02T07:18:10.407Z,83.64
2019-02-02T07:19:10.394Z,83.64
2019-02-02T07:20:10.384Z,83.64
2019-02-02T07:21:10.373Z,83.33
2019-02-02T07:22:10.362Z,83.33
2019-02-02T07:23:10.354Z,83.85
2019-02-02T07:24:10.339Z,83.33
2019-02-02T07:25:10.327Z,83.54
2019-02-02T07:26:10.317Z,83.30
2019-02-02T07:27:10.309Z,83.81
2019-02-02T07:28:10.299Z,83.09
2019-02-02T07:29:10.287Z,83.30
2019-02-02T07:30:10.280Z,83.44
2019-02-02T07:31:10.263Z,82.81
2019-02-02T07:32:10.258Z,83.33
2019-02-02T07:33:10.242Z,83.30
2019-02-02T07:34:10.229Z,83.19
2019-02-02T07:35:10.220Z,83.40
2019-02-02T07:36:10.210Z,83.30
2019-02-02T07:37:10.201Z,83.33
2019-02-02T07:38:10.295Z,83.40
2019-02-02T07:39:10.174Z,83.40
2019-02-02T07:40:10.161Z,83.30
2019-02-02T07:41:10.151Z,83.30
2019-02-02T07:42:10.143Z,83.19
2019-02-02T07:43:10.198Z,83.09
2019-02-02T07:44:10.116Z,82.67
2019-02-02T07:45:10.113Z,83.40
2019-02-02T07:46:15.113Z,83.09
2019-02-02T07:47:10.091Z,83.09
2019-02-02T07:48:10.071Z,82.98
2019-02-02T07:49:10.064Z,83.36
2019-02-02T07:50:10.050Z,82.53
2019-02-02T07:51:10.039Z,82.42
2019-02-02T07:52:10.026Z,82.53
2019-02-02T07:53:10.019Z,82.53
2019-02-02T07:54:10.004Z,82.63
2019-02-02T07:55:09.991Z,82.42
2019-02-02T07:56:09.990Z,82.94
2019-02-02T07:57:09.975Z,82.73
2019-02-02T07:58:09.958Z,82.01
2019-02-02T07:59:09.947Z,82.22
2019-02-02T08:00:09.942Z,81.80
2019-02-02T08:01:09.936Z,82.32
2019-02-02T08:02:09.911Z,81.70
2019-02-02T08:03:09.900Z,82.22
2019-02-02T08:04:09.894Z,82.08
2019-02-02T08:05:09.880Z,82.01
2019-02-02T08:06:09.868Z,81.87
2019-02-02T08:07:09.860Z,82.28
2019-02-02T08:08:09.847Z,81.66
2019-02-02T08:09:09.835Z,81.87
2019-02-02T08:10:09.822Z,81.97
2019-02-02T08:11:09.810Z,81.66
2019-02-02T08:12:09.802Z,82.28
2019-02-02T08:13:09.790Z,81.76
2019-02-02T08:14:11.451Z,81.97
2019-02-02T08:15:09.766Z,81.97
2019-02-02T08:16:09.757Z,81.56
2019-02-02T08:17:09.743Z,81.97
2019-02-02T08:18:09.733Z,81.56
2019-02-02T08:19:09.727Z,81.87
2019-02-02T08:20:09.708Z,82.08
2019-02-02T08:21:09.704Z,82.18
2019-02-02T08:22:09.687Z,81.97
2019-02-02T08:23:09.679Z,81.97
2019-02-02T08:24:09.665Z,82.18
2019-02-02T08:25:09.660Z,81.87
2019-02-02T08:26:09.645Z,82.28
2019-02-02T08:27:09.630Z,81.52
2019-02-02T08:28:09.618Z,81.93
2019-02-02T08:29:09.617Z,81.62
2019-02-02T08:30:09.596Z,81.42
2019-02-02T08:31:09.589Z,81.21
2019-02-02T08:32:09.621Z,81.07
2019-02-02T08:33:09.563Z,81.10
2019-02-02T08:34:09.555Z,80.90
2019-02-02T08:35:09.541Z,80.34
2019-02-02T08:36:09.530Z,81.00
2019-02-02T08:37:09.521Z,81.21
2019-02-02T08:38:09.507Z,80.79
2019-02-02T08:39:09.498Z,80.79
2019-02-02T08:40:09.485Z,80.76
2019-02-02T08:41:09.478Z,80.69
2019-02-02T08:42:09.464Z,80.76
2019-02-02T08:43:09.451Z,80.13
2019-02-02T08:44:09.441Z,80.03
2019-02-02T08:45:09.448Z,80.34
2019-02-02T08:46:09.451Z,80.24
2019-02-02T08:47:09.454Z,80.76
2019-02-02T08:48:09.400Z,80.31
2019-02-02T08:49:09.398Z,80.76
2019-02-02T08:50:09.451Z,79.93
2019-02-02T08:51:09.399Z,80.10
2019-02-02T08:52:09.403Z,80.51
2019-02-02T08:53:09.348Z,79.68
2019-02-02T08:54:09.334Z,79.37
2019-02-02T08:55:09.422Z,79.58
2019-02-02T08:56:09.313Z,79.47
2019-02-02T08:57:09.302Z,79.33
2019-02-02T08:58:09.336Z,79.27
2019-02-02T08:59:09.275Z,79.27
2019-02-02T09:00:09.261Z,79.44
2019-02-02T09:01:09.261Z,79.27
2019-02-02T09:02:09.241Z,78.96
2019-02-02T09:03:09.258Z,79.61
2019-02-02T09:04:09.218Z,79.58
2019-02-02T09:05:09.207Z,79.79
2019-02-02T09:06:09.195Z,80.41
2019-02-02T09:07:09.186Z,80.41
2019-02-02T09:08:09.174Z,80.10
2019-02-02T09:09:09.285Z,80.45
2019-02-02T09:10:09.158Z,79.93
2019-02-02T09:11:09.139Z,80.10
2019-02-02T09:12:09.128Z,80.24
2019-02-02T09:13:09.120Z,80.62
2019-02-02T09:14:09.106Z,80.51
2019-02-02T09:15:09.097Z,80.86
2019-02-02T09:16:09.086Z,80.93
2019-02-02T09:17:09.074Z,79.99
2019-02-02T09:18:09.065Z,79.99
2019-02-02T09:19:09.057Z,80.37
2019-02-02T09:20:09.043Z,79.44
2019-02-02T09:21:09.034Z,78.85
2019-02-02T09:22:09.022Z,79.33
2019-02-02T09:23:09.005Z,79.37
2019-02-02T09:24:09.001Z,79.37
2019-02-02T09:25:08.986Z,79.37
2019-02-02T09:26:08.973Z,80.10
2019-02-02T09:27:08.963Z,80.82
2019-02-02T09:28:08.950Z,80.62
2019-02-02T09:29:10.514Z,79.99
2019-02-02T09:30:08.928Z,80.31
2019-02-02T09:31:15.847Z,79.79
2019-02-02T09:32:33.391Z,79.68
2019-02-02T09:33:33.382Z,79.58
2019-02-02T09:34:33.369Z,79.33
2019-02-02T09:35:33.356Z,79.44
2019-02-02T09:36:33.350Z,79.13
2019-02-02T09:37:33.333Z,79.23
2019-02-02T09:38:33.369Z,79.23
2019-02-02T09:39:33.313Z,79.65
2019-02-02T09:40:33.300Z,79.44
2019-02-02T09:41:33.289Z,78.71
2019-02-02T09:42:33.278Z,78.92
2019-02-02T09:43:33.271Z,79.13
2019-02-02T09:44:33.258Z,78.78
2019-02-02T09:45:33.245Z,78.82
2019-02-02T09:46:33.235Z,79.33
2019-02-02T09:47:33.222Z,79.74
2019-02-02T09:48:33.212Z,78.78
2019-02-02T09:49:33.202Z,78.92
2019-02-02T09:50:33.194Z,78.71
2019-02-02T09:51:33.179Z,78.82
2019-02-02T09:52:33.166Z,79.09
2019-02-02T09:53:33.157Z,78.78
2019-02-02T09:54:33.145Z,78.78
2019-02-02T09:55:33.136Z,78.88
2019-02-02T09:56:33.261Z,78.78
2019-02-02T09:57:33.118Z,79.16
2019-02-02T09:58:33.102Z,78.26
2019-02-02T09:59:33.096Z,78.16
2019-02-02T10:00:33.079Z,78.26
2019-02-02T10:01:33.068Z,78.16
2019-02-02T10:02:33.055Z,78.05
2019-02-02T10:03:33.046Z,78.02
2019-02-02T10:04:33.034Z,78.26
2019-02-02T10:05:33.024Z,77.70
2019-02-02T10:06:33.012Z,77.81
2019-02-02T10:07:33.001Z,77.81
2019-02-02T10:08:32.991Z,77.70
2019-02-02T10:09:32.979Z,77.74
2019-02-02T10:10:32.966Z,77.70
2019-02-02T10:11:32.955Z,77.85
2019-02-02T10:12:32.945Z,77.74
2019-02-02T10:13:32.933Z,78.36
2019-02-02T10:14:32.923Z,79.09
2019-02-02T10:15:32.913Z,78.47
2019-02-02T10:16:32.901Z,78.57
2019-02-02T10:17:32.890Z,78.36
2019-02-02T10:18:32.877Z,78.26
2019-02-02T10:19:32.877Z,79.19
2019-02-02T10:20:32.865Z,78.68
2019-02-02T10:21:32.845Z,78.16
2019-02-02T10:22:32.839Z,78.16
2019-02-02T10:23:32.822Z,78.16
2019-02-02T10:24:32.810Z,78.99
2019-02-02T10:25:32.801Z,78.36
2019-02-02T10:26:32.787Z,78.26
2019-02-02T10:27:32.776Z,79.09
2019-02-02T10:28:32.774Z,78.99
2019-02-02T10:29:32.760Z,78.88
2019-02-02T10:30:32.742Z,78.12
2019-02-02T10:31:39.662Z,78.02
2019-02-02T10:32:57.199Z,77.81
2019-02-02T10:33:57.194Z,77.39
2019-02-02T10:34:57.177Z,77.60
2019-02-02T10:35:57.175Z,77.39
2019-02-02T10:36:57.159Z,77.91
2019-02-02T10:37:57.153Z,77.25
2019-02-02T10:38:57.131Z,77.36
2019-02-02T10:39:57.120Z,77.46
2019-02-02T10:40:57.238Z,76.53
2019-02-02T10:41:57.099Z,77.05
2019-02-02T10:42:57.085Z,76.73
2019-02-02T10:43:57.075Z,76.63
2019-02-02T10:44:57.061Z,76.73
2019-02-02T10:45:57.057Z,76.50
2019-02-02T10:46:57.043Z,76.73
2019-02-02T10:47:57.031Z,76.60
2019-02-02T10:48:57.015Z,76.08
2019-02-02T10:49:57.004Z,76.22
2019-02-02T10:50:56.994Z,76.50
2019-02-02T10:51:56.981Z,76.22
2019-02-02T10:52:56.976Z,76.56
2019-02-02T10:53:56.959Z,76.46
2019-02-02T10:54:56.947Z,77.08
2019-02-02T10:55:56.942Z,76.42
2019-02-02T10:56:56.924Z,76.53
2019-02-02T10:57:56.914Z,76.53
2019-02-02T10:58:56.908Z,76.46
2019-02-02T10:59:56.889Z,76.98
2019-02-02T11:00:56.883Z,77.39
2019-02-02T11:01:56.867Z,77.50
2019-02-02T11:02:56.854Z,77.39
2019-02-02T11:03:56.842Z,77.29
2019-02-02T11:04:56.985Z,77.50
2019-02-02T11:05:56.878Z,77.50
2019-02-02T11:06:56.835Z,77.39
2019-02-02T11:07:56.865Z,77.74
2019-02-02T11:08:56.785Z,78.02
2019-02-02T11:09:56.796Z,77.81
2019-02-02T11:10:56.813Z,78.02
2019-02-02T11:11:56.789Z,77.39
2019-02-02T11:12:56.898Z,77.60
2019-02-02T11:13:56.762Z,77.29
2019-02-02T11:14:56.964Z,77.70
2019-02-02T11:15:56.758Z,77.50
2019-02-02T11:16:56.693Z,77.29
2019-02-02T11:17:56.690Z,77.39
2019-02-02T11:18:56.772Z,78.02
2019-02-02T11:19:56.662Z,78.02
2019-02-02T11:20:56.707Z,77.77
2019-02-02T11:21:56.640Z,77.56
2019-02-02T11:22:56.739Z,76.63
2019-02-02T11:23:56.687Z,76.84
2019-02-02T11:24:56.617Z,76.63
2019-02-02T11:25:56.714Z,76.84
2019-02-02T11:26:56.586Z,76.73
2019-02-02T11:27:56.698Z,76.73
2019-02-02T11:28:56.654Z,76.46
2019-02-02T11:29:56.713Z,77.05
2019-02-02T11:30:56.534Z,77.08
2019-02-02T11:32:02.962Z,77.60
2019-02-02T11:33:20.998Z,77.60
2019-02-02T11:34:20.982Z,77.95
2019-02-02T11:35:20.970Z,77.64
2019-02-02T11:36:20.962Z,77.60
2019-02-02T11:37:20.952Z,77.81
2019-02-02T11:38:20.936Z,77.39
2019-02-02T11:39:20.924Z,77.81
2019-02-02T11:40:20.910Z,77.91
2019-02-02T11:41:20.907Z,77.50
2019-02-02T11:42:20.888Z,77.56
2019-02-02T11:43:20.876Z,77.46
2019-02-02T11:44:20.872Z,76.84
2019-02-02T11:45:20.853Z,76.53
2019-02-02T11:46:20.858Z,77.05
2019-02-02T11:47:20.829Z,76.63
2019-02-02T11:48:20.818Z,76.63
2019-02-02T11:49:23.824Z,77.15
2019-02-02T11:50:20.795Z,76.84
2019-02-02T11:51:20.784Z,76.70
2019-02-02T11:52:23.206Z,76.22
2019-02-02T11:53:20.760Z,76.22
2019-02-02T11:54:20.873Z,76.42
2019-02-02T11:55:20.738Z,76.46
2019-02-02T11:56:20.725Z,77.29
2019-02-02T11:57:20.716Z,77.46
2019-02-02T11:58:20.719Z,77.36
2019-02-02T11:59:20.755Z,77.46
2019-02-02T12:00:20.688Z,77.25
2019-02-02T12:01:20.670Z,77.46
2019-02-02T12:02:20.656Z,77.25
2019-02-02T12:03:20.648Z,77.05
2019-02-02T12:04:20.634Z,77.25
2019-02-02T12:05:20.622Z,76.53
2019-02-02T12:06:20.609Z,76.73
2019-02-02T12:07:20.599Z,76.63
2019-02-02T12:08:20.591Z,76.53
2019-02-02T12:09:20.579Z,76.63
2019-02-02T12:10:20.567Z,76.53
2019-02-02T12:11:20.554Z,76.98
2019-02-02T12:12:20.541Z,77.22
2019-02-02T12:13:20.537Z,78.12
2019-02-02T12:14:20.518Z,78.26
2019-02-02T12:15:20.512Z,78.95
2019-02-02T12:16:20.580Z,78.74
2019-02-02T12:17:20.485Z,78.12
2019-02-02T12:18:20.471Z,78.02
2019-02-02T12:19:20.462Z,77.81
2019-02-02T12:20:20.452Z,77.77
2019-02-02T12:21:20.444Z,77.77
2019-02-02T12:22:20.432Z,77.15
2019-02-02T12:23:20.419Z,77.15
2019-02-02T12:24:20.403Z,77.29
2019-02-02T12:25:20.392Z,77.56
2019-02-02T12:26:20.381Z,77.77
2019-02-02T12:27:20.528Z,78.08
2019-02-02T12:28:20.362Z,77.67
2019-02-02T12:29:20.348Z,78.02
2019-02-02T12:30:20.338Z,78.85
2019-02-02T12:31:20.324Z,78.64
2019-02-02T12:32:26.682Z,78.85
2019-02-02T12:33:44.784Z,78.85
2019-02-02T12:34:44.770Z,78.91
2019-02-02T12:35:44.760Z,78.85
2019-02-02T12:36:44.751Z,78.50
2019-02-02T12:37:44.737Z,78.54
2019-02-02T12:38:44.731Z,78.81
2019-02-02T12:39:44.722Z,77.98
2019-02-02T12:40:44.702Z,77.15
2019-02-02T12:41:44.693Z,77.46
2019-02-02T12:42:44.678Z,77.42
2019-02-02T12:43:44.668Z,77.53
2019-02-02T12:44:44.660Z,77.42
2019-02-02T12:45:44.644Z,77.53
2019-02-02T12:46:44.634Z,77.22
2019-02-02T12:47:44.632Z,77.32
2019-02-02T12:48:44.613Z,77.22
2019-02-02T12:49:44.605Z,77.11
2019-02-02T12:50:44.595Z,77.11
2019-02-02T12:51:44.579Z,77.22
2019-02-02T12:52:44.563Z,77.01
2019-02-02T12:53:44.552Z,77.22
2019-02-02T12:54:44.544Z,77.11